sensor_id;sensor_type;location;lat;lon;timestamp;pressure;altitude;pressure_sealevel;temperature;humidity
64739;BME280;51175;51.186;0.276;2023-02-12T00:00:24;103429.69;;;12.87;67.19
64739;BME280;51175;51.186;0.276;2023-02-12T00:00:54;103421.75;;;12.87;67.39
64739;BME280;51175;51.186;0.276;2023-02-12T00:01:25;103428.88;;;12.87;67.38
64739;BME280;51175;51.186;0.276;2023-02-12T00:01:57;103425.19;;;12.88;67.45
64739;BME280;51175;51.186;0.276;2023-02-12T00:02:28;103419.88;;;12.88;67.49
64739;BME280;51175;51.186;0.276;2023-02-12T00:02:58;103420.91;;;12.87;67.82
64739;BME280;51175;51.186;0.276;2023-02-12T00:03:28;103419.09;;;12.87;67.84
64739;BME280;51175;51.186;0.276;2023-02-12T00:03:59;103424.38;;;12.87;67.86
64739;BME280;51175;51.186;0.276;2023-02-12T00:04:30;103421.75;;;12.87;67.62
64739;BME280;51175;51.186;0.276;2023-02-12T00:05:00;103422.75;;;12.86;67.88
64739;BME280;51175;51.186;0.276;2023-02-12T00:05:31;103419.28;;;12.86;67.58
64739;BME280;51175;51.186;0.276;2023-02-12T00:06:02;103418.47;;;12.85;67.54
64739;BME280;51175;51.186;0.276;2023-02-12T00:06:33;103422.16;;;12.84;67.52
64739;BME280;51175;51.186;0.276;2023-02-12T00:07:03;103424.78;;;12.84;67.40
64739;BME280;51175;51.186;0.276;2023-02-12T00:07:34;103428.25;;;12.85;67.85
64739;BME280;51175;51.186;0.276;2023-02-12T00:08:04;103415.19;;;12.83;67.65
64739;BME280;51175;51.186;0.276;2023-02-12T00:08:35;103426.63;;;12.84;67.42
64739;BME280;51175;51.186;0.276;2023-02-12T00:09:06;103417.84;;;12.83;67.34
64739;BME280;51175;51.186;0.276;2023-02-12T00:09:37;103423.13;;;12.83;67.47
64739;BME280;51175;51.186;0.276;2023-02-12T00:10:07;103430.31;;;12.83;67.05
64739;BME280;51175;51.186;0.276;2023-02-12T00:10:40;103428.44;;;12.83;67.42
64739;BME280;51175;51.186;0.276;2023-02-12T00:11:17;103427.44;;;12.84;67.61
64739;BME280;51175;51.186;0.276;2023-02-12T00:11:47;103421.31;;;12.84;67.44
64739;BME280;51175;51.186;0.276;2023-02-12T00:12:18;103423.13;;;12.83;67.52
64739;BME280;51175;51.186;0.276;2023-02-12T00:12:48;103418.66;;;12.84;67.80
64739;BME280;51175;51.186;0.276;2023-02-12T00:13:19;103424.78;;;12.84;67.44
64739;BME280;51175;51.186;0.276;2023-02-12T00:13:50;103413.56;;;12.82;67.53
64739;BME280;51175;51.186;0.276;2023-02-12T00:14:20;103417.84;;;12.83;67.42
64739;BME280;51175;51.186;0.276;2023-02-12T00:14:51;103416.22;;;12.82;67.64
64739;BME280;51175;51.186;0.276;2023-02-12T00:15:21;103423.13;;;12.83;67.79
64739;BME280;51175;51.186;0.276;2023-02-12T00:15:51;103419.69;;;12.83;67.70
64739;BME280;51175;51.186;0.276;2023-02-12T00:16:25;103425.78;;;12.83;67.74
64739;BME280;51175;51.186;0.276;2023-02-12T00:16:56;103422.34;;;12.83;67.54
64739;BME280;51175;51.186;0.276;2023-02-12T00:17:26;103425.78;;;12.83;67.48
64739;BME280;51175;51.186;0.276;2023-02-12T00:17:57;103425.00;;;12.83;67.43
64739;BME280;51175;51.186;0.276;2023-02-12T00:18:27;103427.66;;;12.83;67.55
64739;BME280;51175;51.186;0.276;2023-02-12T00:18:59;103425.78;;;12.83;67.58
64739;BME280;51175;51.186;0.276;2023-02-12T00:19:30;103420.50;;;12.83;67.24
64739;BME280;51175;51.186;0.276;2023-02-12T00:20:00;103423.13;;;12.83;67.43
64739;BME280;51175;51.186;0.276;2023-02-12T00:20:31;103425.78;;;12.83;67.81
64739;BME280;51175;51.186;0.276;2023-02-12T00:21:02;103426.00;;;12.82;67.46
64739;BME280;51175;51.186;0.276;2023-02-12T00:21:33;103425.00;;;12.83;67.86
64739;BME280;51175;51.186;0.276;2023-02-12T00:22:04;103423.13;;;12.83;67.65
64739;BME280;51175;51.186;0.276;2023-02-12T00:22:35;103419.69;;;12.83;67.76
64739;BME280;51175;51.186;0.276;2023-02-12T00:23:05;103424.16;;;12.82;67.66
64739;BME280;51175;51.186;0.276;2023-02-12T00:23:37;103420.69;;;12.82;67.43
64739;BME280;51175;51.186;0.276;2023-02-12T00:24:08;103422.53;;;12.81;67.59
64739;BME280;51175;51.186;0.276;2023-02-12T00:24:38;103417.25;;;12.81;67.84
64739;BME280;51175;51.186;0.276;2023-02-12T00:25:08;103421.72;;;12.81;67.61
64739;BME280;51175;51.186;0.276;2023-02-12T00:25:40;103413.97;;;12.79;67.61
64739;BME280;51175;51.186;0.276;2023-02-12T00:26:14;103418.25;;;12.80;67.48
64739;BME280;51175;51.186;0.276;2023-02-12T00:26:45;103413.75;;;12.81;67.74
64739;BME280;51175;51.186;0.276;2023-02-12T00:27:17;103420.09;;;12.79;67.91
64739;BME280;51175;51.186;0.276;2023-02-12T00:27:47;103416.41;;;12.81;67.88
64739;BME280;51175;51.186;0.276;2023-02-12T00:28:18;103419.91;;;12.81;67.93
64739;BME280;51175;51.186;0.276;2023-02-12T00:28:49;103410.28;;;12.80;67.97
64739;BME280;51175;51.186;0.276;2023-02-12T00:29:20;103419.91;;;12.81;67.90
64739;BME280;51175;51.186;0.276;2023-02-12T00:29:50;103412.16;;;12.79;67.55
64739;BME280;51175;51.186;0.276;2023-02-12T00:30:21;103413.75;;;12.81;67.79
64739;BME280;51175;51.186;0.276;2023-02-12T00:30:51;103422.53;;;12.81;67.59
64739;BME280;51175;51.186;0.276;2023-02-12T00:31:24;103416.41;;;12.81;67.54
64739;BME280;51175;51.186;0.276;2023-02-12T00:31:54;103419.06;;;12.81;67.77
64739;BME280;51175;51.186;0.276;2023-02-12T00:32:25;103418.25;;;12.80;67.66
64739;BME280;51175;51.186;0.276;2023-02-12T00:32:55;103419.06;;;12.81;67.82
64739;BME280;51175;51.186;0.276;2023-02-12T00:33:26;103415.59;;;12.80;67.59
64739;BME280;51175;51.186;0.276;2023-02-12T00:33:57;103423.53;;;12.80;67.97
64739;BME280;51175;51.186;0.276;2023-02-12T00:34:28;103412.94;;;12.80;68.13
64739;BME280;51175;51.186;0.276;2023-02-12T00:34:59;103418.25;;;12.80;68.11
64739;BME280;51175;51.186;0.276;2023-02-12T00:35:29;103421.91;;;12.79;67.86
64739;BME280;51175;51.186;0.276;2023-02-12T00:36:02;103413.97;;;12.79;67.85
64739;BME280;51175;51.186;0.276;2023-02-12T00:36:32;103416.63;;;12.79;68.00
64739;BME280;51175;51.186;0.276;2023-02-12T00:37:03;103413.16;;;12.78;67.76
64739;BME280;51175;51.186;0.276;2023-02-12T00:37:33;103408.66;;;12.79;67.79
64739;BME280;51175;51.186;0.276;2023-02-12T00:38:04;103413.16;;;12.78;67.91
64739;BME280;51175;51.186;0.276;2023-02-12T00:38:34;103415.00;;;12.78;67.77
64739;BME280;51175;51.186;0.276;2023-02-12T00:39:04;103417.66;;;12.78;68.09
64739;BME280;51175;51.186;0.276;2023-02-12T00:39:35;103413.16;;;12.78;68.46
64739;BME280;51175;51.186;0.276;2023-02-12T00:40:07;103417.66;;;12.78;68.22
64739;BME280;51175;51.186;0.276;2023-02-12T00:40:38;103417.66;;;12.78;68.49
64739;BME280;51175;51.186;0.276;2023-02-12T00:41:08;103417.66;;;12.78;68.35
64739;BME280;51175;51.186;0.276;2023-02-12T00:41:38;103413.34;;;12.77;68.19
64739;BME280;51175;51.186;0.276;2023-02-12T00:42:09;103414.16;;;12.77;68.04
64739;BME280;51175;51.186;0.276;2023-02-12T00:42:39;103424.78;;;12.77;68.12
64739;BME280;51175;51.186;0.276;2023-02-12T00:43:10;103416.81;;;12.77;68.20
64739;BME280;51175;51.186;0.276;2023-02-12T00:43:40;103422.13;;;12.77;68.15
64739;BME280;51175;51.186;0.276;2023-02-12T00:44:10;103423.94;;;12.77;68.15
64739;BME280;51175;51.186;0.276;2023-02-12T00:44:41;103420.50;;;12.76;67.91
64739;BME280;51175;51.186;0.276;2023-02-12T00:45:11;103418.66;;;12.77;67.77
64739;BME280;51175;51.186;0.276;2023-02-12T00:45:44;103424.78;;;12.77;68.19
64739;BME280;51175;51.186;0.276;2023-02-12T00:46:15;103423.16;;;12.76;68.10
64739;BME280;51175;51.186;0.276;2023-02-12T00:46:45;103430.09;;;12.77;67.85
64739;BME280;51175;51.186;0.276;2023-02-12T00:47:16;103422.34;;;12.76;67.45
64739;BME280;51175;51.186;0.276;2023-02-12T00:47:46;103422.34;;;12.76;67.47
64739;BME280;51175;51.186;0.276;2023-02-12T00:48:16;103412.53;;;12.76;67.81
64739;BME280;51175;51.186;0.276;2023-02-12T00:48:47;103418.66;;;12.77;67.98
64739;BME280;51175;51.186;0.276;2023-02-12T00:49:17;103422.34;;;12.76;67.48
64739;BME280;51175;51.186;0.276;2023-02-12T00:49:49;103418.66;;;12.77;67.52
64739;BME280;51175;51.186;0.276;2023-02-12T00:50:19;103416.00;;;12.77;68.04
64739;BME280;51175;51.186;0.276;2023-02-12T00:50:50;103416.19;;;12.75;68.02
64739;BME280;51175;51.186;0.276;2023-02-12T00:51:20;103419.69;;;12.76;68.00
64739;BME280;51175;51.186;0.276;2023-02-12T00:51:51;103414.38;;;12.76;67.90
64739;BME280;51175;51.186;0.276;2023-02-12T00:52:21;103420.72;;;12.75;67.53
64739;BME280;51175;51.186;0.276;2023-02-12T00:52:51;103421.50;;;12.75;67.87
64739;BME280;51175;51.186;0.276;2023-02-12T00:53:22;103419.69;;;12.76;67.67
64739;BME280;51175;51.186;0.276;2023-02-12T00:53:52;103420.72;;;12.75;67.60
64739;BME280;51175;51.186;0.276;2023-02-12T00:54:22;103420.72;;;12.75;67.34
64739;BME280;51175;51.186;0.276;2023-02-12T00:54:53;103423.34;;;12.75;67.45
64739;BME280;51175;51.186;0.276;2023-02-12T00:55:23;103425.19;;;12.74;67.54
64739;BME280;51175;51.186;0.276;2023-02-12T00:55:54;103421.72;;;12.74;67.28
64739;BME280;51175;51.186;0.276;2023-02-12T00:56:24;103417.22;;;12.74;67.71
64739;BME280;51175;51.186;0.276;2023-02-12T00:56:55;103419.88;;;12.74;67.75
64739;BME280;51175;51.186;0.276;2023-02-12T00:57:26;103419.06;;;12.74;68.18
64739;BME280;51175;51.186;0.276;2023-02-12T00:57:56;103424.56;;;12.72;67.48
64739;BME280;51175;51.186;0.276;2023-02-12T00:58:27;103419.06;;;12.74;67.63
64739;BME280;51175;51.186;0.276;2023-02-12T00:58:58;103420.09;;;12.73;67.80
64739;BME280;51175;51.186;0.276;2023-02-12T00:59:29;103426.22;;;12.73;67.68
64739;BME280;51175;51.186;0.276;2023-02-12T00:59:59;103423.56;;;12.73;67.98
64739;BME280;51175;51.186;0.276;2023-02-12T01:00:30;103422.72;;;12.73;67.57
64739;BME280;51175;51.186;0.276;2023-02-12T01:01:00;103426.22;;;12.73;67.66
64739;BME280;51175;51.186;0.276;2023-02-12T01:01:31;103418.25;;;12.73;67.83
64739;BME280;51175;51.186;0.276;2023-02-12T01:02:01;103423.56;;;12.73;67.68
64739;BME280;51175;51.186;0.276;2023-02-12T01:02:31;103420.91;;;12.73;67.93
64739;BME280;51175;51.186;0.276;2023-02-12T01:03:02;103423.56;;;12.73;68.17
64739;BME280;51175;51.186;0.276;2023-02-12T01:03:33;103428.03;;;12.73;68.02
64739;BME280;51175;51.186;0.276;2023-02-12T01:04:03;103427.22;;;12.72;67.74
64739;BME280;51175;51.186;0.276;2023-02-12T01:04:34;103426.41;;;12.72;67.41
64739;BME280;51175;51.186;0.276;2023-02-12T01:05:05;103424.56;;;12.72;67.75
64739;BME280;51175;51.186;0.276;2023-02-12T01:05:35;103429.06;;;12.72;67.72
64739;BME280;51175;51.186;0.276;2023-02-12T01:06:06;103418.47;;;12.72;67.84
64739;BME280;51175;51.186;0.276;2023-02-12T01:06:37;103417.63;;;12.71;67.81
64739;BME280;51175;51.186;0.276;2023-02-12T01:07:08;103422.09;;;12.71;67.79
64739;BME280;51175;51.186;0.276;2023-02-12T01:07:38;103427.41;;;12.71;67.88
64739;BME280;51175;51.186;0.276;2023-02-12T01:08:14;103426.63;;;12.70;67.76
64739;BME280;51175;51.186;0.276;2023-02-12T01:08:44;103421.31;;;12.70;67.85
64739;BME280;51175;51.186;0.276;2023-02-12T01:09:15;103423.13;;;12.70;67.91
64739;BME280;51175;51.186;0.276;2023-02-12T01:09:45;103422.09;;;12.71;67.50
64739;BME280;51175;51.186;0.276;2023-02-12T01:10:16;103425.78;;;12.70;67.64
64739;BME280;51175;51.186;0.276;2023-02-12T01:10:53;103426.63;;;12.70;67.79
64739;BME280;51175;51.186;0.276;2023-02-12T01:11:24;103427.41;;;12.71;67.90
64739;BME280;51175;51.186;0.276;2023-02-12T01:11:54;103420.47;;;12.70;68.11
64739;BME280;51175;51.186;0.276;2023-02-12T01:12:25;103417.84;;;12.70;67.91
64739;BME280;51175;51.186;0.276;2023-02-12T01:12:55;103428.44;;;12.70;67.77
64739;BME280;51175;51.186;0.276;2023-02-12T01:13:27;103423.97;;;12.70;67.96
64739;BME280;51175;51.186;0.276;2023-02-12T01:13:59;103424.97;;;12.69;68.03
64739;BME280;51175;51.186;0.276;2023-02-12T01:14:29;103425.78;;;12.70;68.36
64739;BME280;51175;51.186;0.276;2023-02-12T01:15:00;103424.16;;;12.69;68.03
64739;BME280;51175;51.186;0.276;2023-02-12T01:15:30;103424.16;;;12.69;67.97
64739;BME280;51175;51.186;0.276;2023-02-12T01:16:17;103424.16;;;12.69;67.86
64739;BME280;51175;51.186;0.276;2023-02-12T01:16:48;103423.13;;;12.70;67.65
64739;BME280;51175;51.186;0.276;2023-02-12T01:17:18;103416.22;;;12.69;67.65
64739;BME280;51175;51.186;0.276;2023-02-12T01:17:52;103418.66;;;12.70;67.91
64739;BME280;51175;51.186;0.276;2023-02-12T01:18:23;103421.31;;;12.70;67.98
64739;BME280;51175;51.186;0.276;2023-02-12T01:18:54;103416.22;;;12.69;67.93
64739;BME280;51175;51.186;0.276;2023-02-12T01:19:24;103416.22;;;12.69;67.72
64739;BME280;51175;51.186;0.276;2023-02-12T01:19:58;103414.56;;;12.68;67.88
64739;BME280;51175;51.186;0.276;2023-02-12T01:20:28;103420.69;;;12.68;67.85
64739;BME280;51175;51.186;0.276;2023-02-12T01:20:59;103419.84;;;12.68;67.78
64739;BME280;51175;51.186;0.276;2023-02-12T01:21:32;103419.06;;;12.67;68.11
64739;BME280;51175;51.186;0.276;2023-02-12T01:22:03;103421.72;;;12.67;67.75
64739;BME280;51175;51.186;0.276;2023-02-12T01:22:34;103412.72;;;12.68;67.77
64739;BME280;51175;51.186;0.276;2023-02-12T01:23:05;103417.22;;;12.68;67.73
64739;BME280;51175;51.186;0.276;2023-02-12T01:23:37;103417.22;;;12.68;67.89
64739;BME280;51175;51.186;0.276;2023-02-12T01:24:08;103417.22;;;12.68;67.98
64739;BME280;51175;51.186;0.276;2023-02-12T01:24:39;103417.22;;;12.68;67.71
64739;BME280;51175;51.186;0.276;2023-02-12T01:25:09;103416.41;;;12.67;67.81
64739;BME280;51175;51.186;0.276;2023-02-12T01:25:40;103410.28;;;12.66;67.57
64739;BME280;51175;51.186;0.276;2023-02-12T01:26:11;103406.59;;;12.68;67.88
64739;BME280;51175;51.186;0.276;2023-02-12T01:26:41;103414.56;;;12.68;67.80
64739;BME280;51175;51.186;0.276;2023-02-12T01:27:12;103410.28;;;12.66;67.71
64739;BME280;51175;51.186;0.276;2023-02-12T01:27:42;103411.91;;;12.68;67.49
64739;BME280;51175;51.186;0.276;2023-02-12T01:28:12;103411.09;;;12.67;67.69
64739;BME280;51175;51.186;0.276;2023-02-12T01:28:47;103410.28;;;12.66;67.79
64739;BME280;51175;51.186;0.276;2023-02-12T01:29:18;103408.63;;;12.65;67.88
64739;BME280;51175;51.186;0.276;2023-02-12T01:29:48;103412.94;;;12.66;67.72
64739;BME280;51175;51.186;0.276;2023-02-12T01:30:19;103414.75;;;12.66;67.56
64739;BME280;51175;51.186;0.276;2023-02-12T01:30:52;103415.59;;;12.66;67.49
64739;BME280;51175;51.186;0.276;2023-02-12T01:31:25;103409.44;;;12.66;67.27
64739;BME280;51175;51.186;0.276;2023-02-12T01:31:56;103413.75;;;12.67;67.23
64739;BME280;51175;51.186;0.276;2023-02-12T01:32:26;103413.75;;;12.67;67.23
64739;BME280;51175;51.186;0.276;2023-02-12T01:32:57;103412.94;;;12.66;67.14
64739;BME280;51175;51.186;0.276;2023-02-12T01:33:27;103410.28;;;12.66;67.40
64739;BME280;51175;51.186;0.276;2023-02-12T01:33:59;103412.09;;;12.66;67.24
64739;BME280;51175;51.186;0.276;2023-02-12T01:34:29;103411.28;;;12.65;67.39
64739;BME280;51175;51.186;0.276;2023-02-12T01:35:00;103411.09;;;12.67;67.69
64739;BME280;51175;51.186;0.276;2023-02-12T01:35:30;103412.94;;;12.66;67.32
64739;BME280;51175;51.186;0.276;2023-02-12T01:36:01;103411.28;;;12.65;67.39
64739;BME280;51175;51.186;0.276;2023-02-12T01:36:32;103405.97;;;12.65;67.62
64739;BME280;51175;51.186;0.276;2023-02-12T01:37:03;103407.84;;;12.65;67.41
64739;BME280;51175;51.186;0.276;2023-02-12T01:37:35;103407.84;;;12.65;67.03
64739;BME280;51175;51.186;0.276;2023-02-12T01:38:06;103405.97;;;12.65;67.02
64739;BME280;51175;51.186;0.276;2023-02-12T01:38:36;103399.88;;;12.65;67.53
64739;BME280;51175;51.186;0.276;2023-02-12T01:39:07;103404.34;;;12.64;67.50
64739;BME280;51175;51.186;0.276;2023-02-12T01:39:37;103404.16;;;12.66;67.91
64739;BME280;51175;51.186;0.276;2023-02-12T01:40:08;103400.66;;;12.65;68.14
64739;BME280;51175;51.186;0.276;2023-02-12T01:40:39;103401.69;;;12.64;67.94
64739;BME280;51175;51.186;0.276;2023-02-12T01:41:12;103401.69;;;12.64;67.89
64739;BME280;51175;51.186;0.276;2023-02-12T01:41:43;103399.88;;;12.65;67.88
64739;BME280;51175;51.186;0.276;2023-02-12T01:42:15;103401.69;;;12.64;67.87
64739;BME280;51175;51.186;0.276;2023-02-12T01:42:47;103403.31;;;12.65;67.94
64739;BME280;51175;51.186;0.276;2023-02-12T01:43:18;103399.06;;;12.64;68.08
64739;BME280;51175;51.186;0.276;2023-02-12T01:45:47;103401.91;;;12.63;67.97
64739;BME280;51175;51.186;0.276;2023-02-12T01:46:17;103403.72;;;12.62;67.97
64739;BME280;51175;51.186;0.276;2023-02-12T01:46:58;103409.84;;;12.63;67.67
64739;BME280;51175;51.186;0.276;2023-02-12T01:47:29;103409.03;;;12.62;67.58
64739;BME280;51175;51.186;0.276;2023-02-12T01:48:00;103400.28;;;12.62;67.57
64739;BME280;51175;51.186;0.276;2023-02-12T01:48:40;103402.09;;;12.61;67.79
64739;BME280;51175;51.186;0.276;2023-02-12T01:49:13;103409.03;;;12.62;67.42
64739;BME280;51175;51.186;0.276;2023-02-12T01:49:46;103404.75;;;12.61;67.63
64739;BME280;51175;51.186;0.276;2023-02-12T01:50:19;103403.94;;;12.61;67.31
64739;BME280;51175;51.186;0.276;2023-02-12T01:50:50;103399.66;;;12.60;67.31
64739;BME280;51175;51.186;0.276;2023-02-12T01:51:23;103401.28;;;12.61;67.56
64739;BME280;51175;51.186;0.276;2023-02-12T01:51:58;103405.78;;;12.60;67.92
64739;BME280;51175;51.186;0.276;2023-02-12T01:52:32;103407.63;;;12.60;67.69
64739;BME280;51175;51.186;0.276;2023-02-12T01:53:03;103406.78;;;12.59;67.70
64739;BME280;51175;51.186;0.276;2023-02-12T01:53:37;103409.44;;;12.59;67.86
64739;BME280;51175;51.186;0.276;2023-02-12T01:54:11;103406.78;;;12.59;68.00
64739;BME280;51175;51.186;0.276;2023-02-12T01:54:42;103405.16;;;12.58;67.77
64739;BME280;51175;51.186;0.276;2023-02-12T01:55:13;103405.16;;;12.58;68.07
64739;BME280;51175;51.186;0.276;2023-02-12T01:55:46;103405.16;;;12.58;68.08
64739;BME280;51175;51.186;0.276;2023-02-12T01:56:18;103415.97;;;12.57;67.78
64739;BME280;51175;51.186;0.276;2023-02-12T01:56:49;103408.00;;;12.57;67.66
64739;BME280;51175;51.186;0.276;2023-02-12T01:57:19;103416.78;;;12.57;68.23
64739;BME280;51175;51.186;0.276;2023-02-12T01:57:50;103410.47;;;12.58;67.74
64739;BME280;51175;51.186;0.276;2023-02-12T01:58:23;103406.38;;;12.56;67.74
64739;BME280;51175;51.186;0.276;2023-02-12T01:58:54;103409.03;;;12.56;67.75
64739;BME280;51175;51.186;0.276;2023-02-12T01:59:27;103408.22;;;12.55;67.91
64739;BME280;51175;51.186;0.276;2023-02-12T02:00:01;103407.19;;;12.56;67.88
64739;BME280;51175;51.186;0.276;2023-02-12T02:00:33;103410.66;;;12.57;68.01
64739;BME280;51175;51.186;0.276;2023-02-12T02:01:06;103408.00;;;12.57;67.79
64739;BME280;51175;51.186;0.276;2023-02-12T02:01:37;103410.66;;;12.57;68.00
64739;BME280;51175;51.186;0.276;2023-02-12T02:02:07;103411.50;;;12.57;67.93
64739;BME280;51175;51.186;0.276;2023-02-12T02:02:38;103415.97;;;12.57;68.17
64739;BME280;51175;51.186;0.276;2023-02-12T02:03:09;103409.03;;;12.56;67.89
64739;BME280;51175;51.186;0.276;2023-02-12T02:03:41;103415.13;;;12.56;67.84
64739;BME280;51175;51.186;0.276;2023-02-12T02:04:16;103411.69;;;12.56;67.84
64739;BME280;51175;51.186;0.276;2023-02-12T02:04:54;103416.16;;;12.55;67.54
64739;BME280;51175;51.186;0.276;2023-02-12T02:05:54;103412.50;;;12.56;67.60
64739;BME280;51175;51.186;0.276;2023-02-12T02:06:30;103415.13;;;12.56;67.39
64739;BME280;51175;51.186;0.276;2023-02-12T02:07:03;103409.03;;;12.56;67.34
64739;BME280;51175;51.186;0.276;2023-02-12T02:07:34;103420.44;;;12.56;67.76
64739;BME280;51175;51.186;0.276;2023-02-12T02:08:05;103414.34;;;12.56;67.55
64739;BME280;51175;51.186;0.276;2023-02-12T02:08:35;103413.53;;;12.55;67.43
64739;BME280;51175;51.186;0.276;2023-02-12T02:09:07;103413.53;;;12.55;67.81
64739;BME280;51175;51.186;0.276;2023-02-12T02:09:38;103418.00;;;12.54;67.71
64739;BME280;51175;51.186;0.276;2023-02-12T02:10:09;103421.47;;;12.55;67.74
64739;BME280;51175;51.186;0.276;2023-02-12T02:10:39;103415.34;;;12.54;67.99
64739;BME280;51175;51.186;0.276;2023-02-12T02:11:10;103409.25;;;12.54;68.26
64739;BME280;51175;51.186;0.276;2023-02-12T02:11:59;103416.38;;;12.53;68.14
64739;BME280;51175;51.186;0.276;2023-02-12T02:12:48;103420.03;;;12.52;67.92
64739;BME280;51175;51.186;0.276;2023-02-12T02:13:37;103416.56;;;12.52;67.84
64739;BME280;51175;51.186;0.276;2023-02-12T02:14:28;103410.44;;;12.51;67.79
64739;BME280;51175;51.186;0.276;2023-02-12T02:15:02;103413.09;;;12.51;67.85
64739;BME280;51175;51.186;0.276;2023-02-12T02:15:35;103413.91;;;12.52;67.90
64739;BME280;51175;51.186;0.276;2023-02-12T02:16:23;103416.56;;;12.52;67.54
64739;BME280;51175;51.186;0.276;2023-02-12T02:21:11;103411.88;;;12.47;67.91
64739;BME280;51175;51.186;0.276;2023-02-12T02:23:29;103409.41;;;12.46;67.94
64739;BME280;51175;51.186;0.276;2023-02-12T02:26:12;103402.50;;;12.45;68.04
64739;BME280;51175;51.186;0.276;2023-02-12T02:29:10;103403.28;;;12.45;67.51
64739;BME280;51175;51.186;0.276;2023-02-12T02:30:46;103406.97;;;12.44;67.28
64739;BME280;51175;51.186;0.276;2023-02-12T02:32:02;103406.97;;;12.44;67.65
64739;BME280;51175;51.186;0.276;2023-02-12T02:33:55;103400.03;;;12.43;68.18
64739;BME280;51175;51.186;0.276;2023-02-12T02:34:52;103401.88;;;12.43;68.06
64739;BME280;51175;51.186;0.276;2023-02-12T02:36:31;103398.59;;;12.40;67.88
64739;BME280;51175;51.186;0.276;2023-02-12T02:37:17;103401.25;;;12.40;67.48
64739;BME280;51175;51.186;0.276;2023-02-12T02:38:08;103395.94;;;12.40;67.86
64739;BME280;51175;51.186;0.276;2023-02-12T02:40:21;103400.44;;;12.40;67.91
64739;BME280;51175;51.186;0.276;2023-02-12T02:41:01;103399.41;;;12.41;67.83
64739;BME280;51175;51.186;0.276;2023-02-12T02:41:46;103401.25;;;12.40;67.89
64739;BME280;51175;51.186;0.276;2023-02-12T02:42:38;103401.25;;;12.40;67.91
64739;BME280;51175;51.186;0.276;2023-02-12T02:43:17;103404.91;;;12.39;67.54
64739;BME280;51175;51.186;0.276;2023-02-12T02:43:51;103406.75;;;12.39;67.77
64739;BME280;51175;51.186;0.276;2023-02-12T02:44:33;103395.34;;;12.38;68.41
64739;BME280;51175;51.186;0.276;2023-02-12T02:46:07;103403.28;;;12.38;67.96
64739;BME280;51175;51.186;0.276;2023-02-12T02:46:44;103399.81;;;12.38;67.96
64739;BME280;51175;51.186;0.276;2023-02-12T02:47:16;103398.00;;;12.38;68.07
64739;BME280;51175;51.186;0.276;2023-02-12T02:47:58;103396.13;;;12.39;67.82
64739;BME280;51175;51.186;0.276;2023-02-12T02:48:51;103407.56;;;12.39;68.22
64739;BME280;51175;51.186;0.276;2023-02-12T02:49:42;103402.28;;;12.39;67.60
64739;BME280;51175;51.186;0.276;2023-02-12T02:50:19;103400.44;;;12.40;67.39
64739;BME280;51175;51.186;0.276;2023-02-12T02:51:03;103395.13;;;12.40;67.47
64739;BME280;51175;51.186;0.276;2023-02-12T02:51:39;103405.75;;;12.40;67.63
64739;BME280;51175;51.186;0.276;2023-02-12T02:52:15;103403.88;;;12.40;67.77
64739;BME280;51175;51.186;0.276;2023-02-12T02:52:54;103398.59;;;12.40;68.01
64739;BME280;51175;51.186;0.276;2023-02-12T02:53:30;103401.25;;;12.40;67.74
64739;BME280;51175;51.186;0.276;2023-02-12T02:54:15;103397.78;;;12.40;68.29
64739;BME280;51175;51.186;0.276;2023-02-12T02:54:53;103399.63;;;12.39;68.19
64739;BME280;51175;51.186;0.276;2023-02-12T02:55:28;103399.63;;;12.39;68.20
64739;BME280;51175;51.186;0.276;2023-02-12T02:56:02;103404.91;;;12.39;68.21
64739;BME280;51175;51.186;0.276;2023-02-12T02:56:38;103402.28;;;12.39;68.65
64739;BME280;51175;51.186;0.276;2023-02-12T02:57:17;103411.25;;;12.38;68.80
64739;BME280;51175;51.186;0.276;2023-02-12T02:58:00;103405.13;;;12.38;68.17
64739;BME280;51175;51.186;0.276;2023-02-12T02:58:35;103398.00;;;12.38;68.25
64739;BME280;51175;51.186;0.276;2023-02-12T02:59:15;103398.19;;;12.37;68.10
64739;BME280;51175;51.186;0.276;2023-02-12T02:59:51;103400.84;;;12.37;68.27
64739;BME280;51175;51.186;0.276;2023-02-12T03:00:31;103395.53;;;12.37;68.13
64739;BME280;51175;51.186;0.276;2023-02-12T03:01:17;103397.38;;;12.36;68.28
64739;BME280;51175;51.186;0.276;2023-02-12T03:01:53;103392.28;;;12.35;68.22
64739;BME280;51175;51.186;0.276;2023-02-12T03:02:29;103394.91;;;12.35;67.98
64739;BME280;51175;51.186;0.276;2023-02-12T03:03:06;103394.91;;;12.35;68.08
64739;BME280;51175;51.186;0.276;2023-02-12T03:03:45;103394.91;;;12.35;67.65
64739;BME280;51175;51.186;0.276;2023-02-12T03:04:21;103389.63;;;12.35;68.06
64739;BME280;51175;51.186;0.276;2023-02-12T03:04:57;103399.19;;;12.36;67.99
64739;BME280;51175;51.186;0.276;2023-02-12T03:05:33;103399.38;;;12.34;68.08
64739;BME280;51175;51.186;0.276;2023-02-12T03:06:21;103399.38;;;12.34;68.06
64739;BME280;51175;51.186;0.276;2023-02-12T03:06:58;103396.75;;;12.34;67.96
64739;BME280;51175;51.186;0.276;2023-02-12T03:07:34;103399.38;;;12.34;68.02
64739;BME280;51175;51.186;0.276;2023-02-12T03:08:22;103394.09;;;12.34;67.99
64739;BME280;51175;51.186;0.276;2023-02-12T03:08:58;103397.56;;;12.35;68.06
64739;BME280;51175;51.186;0.276;2023-02-12T03:09:48;103396.75;;;12.34;67.86
64739;BME280;51175;51.186;0.276;2023-02-12T03:10:36;103400.22;;;12.35;67.83
64739;BME280;51175;51.186;0.276;2023-02-12T03:11:13;103404.50;;;12.36;67.77
64739;BME280;51175;51.186;0.276;2023-02-12T03:11:46;103400.22;;;12.35;67.82
64739;BME280;51175;51.186;0.276;2023-02-12T03:12:28;103403.69;;;12.35;67.67
64739;BME280;51175;51.186;0.276;2023-02-12T03:13:14;103398.41;;;12.35;67.77